createdAt,value
2022-11-24T00:00:34.315Z,96868.09
2022-11-24T00:03:05.998Z,96870.09
2022-11-24T00:05:39.243Z,96875.63
2022-11-24T00:08:12.695Z,96883.09
2022-11-24T00:10:43.347Z,96878.72
2022-11-24T00:13:14.094Z,96882.66
2022-11-24T00:15:44.807Z,96888.09
2022-11-24T00:18:15.527Z,96887.06
2022-11-24T00:20:46.242Z,96896.69
2022-11-24T00:23:19.583Z,96892.25
2022-11-24T00:25:50.206Z,96888.50
2022-11-24T00:28:20.943Z,96887.00
2022-11-24T00:30:51.669Z,96880.94
2022-11-24T00:33:22.387Z,96887.19
2022-11-24T00:35:59.188Z,96890.22
2022-11-24T00:38:32.448Z,96889.75
2022-11-24T00:41:03.078Z,96887.56
2022-11-24T00:43:33.705Z,96900.22
2022-11-24T00:46:04.665Z,96894.56
2022-11-24T00:48:35.866Z,96892.72
2022-11-24T00:51:09.743Z,96889.31
2022-11-24T00:53:43.503Z,96898.38
2022-11-24T00:56:15.509Z,96899.66
2022-11-24T00:58:46.114Z,96903.38
2022-11-24T01:01:19.826Z,96899.34
2022-11-24T01:03:50.972Z,96906.16
2022-11-24T01:06:24.224Z,96901.47
2022-11-24T01:08:58.965Z,96902.22
2022-11-24T01:11:51.989Z,96901.13
2022-11-24T01:14:23.520Z,96906.47
2022-11-24T01:16:54.471Z,96907.81
2022-11-24T01:19:26.169Z,96906.84
2022-11-24T01:21:56.800Z,96913.09
2022-11-24T01:24:30.175Z,96917.22
2022-11-24T01:27:00.899Z,96920.28
2022-11-24T01:29:31.863Z,96919.19
2022-11-24T01:32:02.613Z,96922.88
2022-11-24T01:34:33.468Z,96921.56
2022-11-24T01:37:04.418Z,96932.91
2022-11-24T01:39:37.712Z,96933.13
2022-11-24T01:42:08.732Z,96936.56
2022-11-24T01:44:39.402Z,96944.97
2022-11-24T01:47:25.261Z,96944.34
2022-11-24T01:50:02.139Z,96940.25
2022-11-24T01:52:37.616Z,96947.44
2022-11-24T01:55:17.168Z,96952.66
2022-11-24T01:57:51.401Z,96952.38
2022-11-24T02:00:22.450Z,96953.31
2022-11-24T02:02:53.466Z,96958.81
2022-11-24T02:05:29.295Z,96955.13
2022-11-24T02:08:04.122Z,96948.94
2022-11-24T02:10:37.536Z,96957.66
2022-11-24T02:13:08.731Z,96951.84
2022-11-24T02:15:39.167Z,96958.88
2022-11-24T02:18:09.939Z,96962.41
2022-11-24T02:20:40.707Z,96967.44
2022-11-24T02:23:20.505Z,96970.78
2022-11-24T02:26:02.126Z,96964.09
2022-11-24T02:28:36.504Z,96968.41
2022-11-24T02:31:09.109Z,96969.22
2022-11-24T02:33:40.877Z,96971.78
2022-11-24T02:36:11.937Z,96968.09
2022-11-24T02:38:42.703Z,96965.84
2022-11-24T02:41:20.077Z,96968.00
2022-11-24T02:43:58.915Z,96966.66
2022-11-24T02:46:29.681Z,96969.56
2022-11-24T02:49:00.688Z,96964.72
2022-11-24T02:51:31.422Z,96973.13
2022-11-24T02:54:02.145Z,96968.69
2022-11-24T02:56:33.065Z,96973.72
2022-11-24T02:59:06.437Z,96974.66
2022-11-24T03:01:37.241Z,96981.84
2022-11-24T03:04:08.398Z,96983.97
2022-11-24T03:06:38.981Z,96983.97
2022-11-24T03:09:09.956Z,96983.97
2022-11-24T03:11:41.534Z,96980.47
2022-11-24T03:14:14.910Z,96977.09
2022-11-24T03:16:45.597Z,96978.47
2022-11-24T03:19:16.601Z,96979.84
2022-11-24T03:21:47.311Z,96986.56
2022-11-24T03:24:17.992Z,96990.38
2022-11-24T03:26:48.733Z,96992.97
2022-11-24T03:29:22.134Z,96997.56
2022-11-24T03:31:52.847Z,97003.06
2022-11-24T03:34:23.495Z,96996.63
2022-11-24T03:36:54.496Z,96995.75
2022-11-24T03:39:25.195Z,97006.47
2022-11-24T03:41:55.900Z,97006.31
2022-11-24T03:44:29.600Z,97002.66
2022-11-24T03:47:00.250Z,97008.91
2022-11-24T03:49:31.058Z,97013.19
2022-11-24T03:52:07.667Z,97017.44
2022-11-24T03:54:39.058Z,97014.84
2022-11-24T03:57:09.828Z,97004.00
2022-11-24T03:59:43.222Z,97014.97
2022-11-24T04:02:14.041Z,97012.53
2022-11-24T04:04:49.832Z,97018.00
2022-11-24T04:07:21.309Z,97016.50
2022-11-24T04:09:51.977Z,97021.50
2022-11-24T04:12:34.958Z,97024.72
2022-11-24T04:15:09.873Z,97023.78
2022-11-24T04:17:40.305Z,97033.22
2022-11-24T04:20:13.684Z,97032.00
2022-11-24T04:22:44.250Z,97040.38
2022-11-24T04:25:17.546Z,97038.09
2022-11-24T04:27:47.988Z,97044.66
2022-11-24T04:30:21.517Z,97043.28
2022-11-24T04:32:52.302Z,97050.91
2022-11-24T04:35:22.989Z,97043.28
2022-11-24T04:37:53.555Z,97052.78
2022-11-24T04:40:24.181Z,97056.63
2022-11-24T04:42:58.808Z,97060.00
2022-11-24T04:45:31.829Z,97062.88
2022-11-24T04:48:02.233Z,97057.94
2022-11-24T04:50:32.749Z,97067.53
2022-11-24T04:53:03.275Z,97075.31
2022-11-24T04:55:33.761Z,97082.47
2022-11-24T04:58:04.259Z,97079.91
2022-11-24T05:00:37.383Z,97087.38
2022-11-24T05:03:08.787Z,97090.72
2022-11-24T05:05:39.252Z,97094.84
2022-11-24T05:08:09.779Z,97101.41
2022-11-24T05:10:37.566Z,97102.78
2022-11-24T05:13:12.020Z,97098.84
2022-11-24T05:15:45.844Z,97096.69
2022-11-24T05:18:17.838Z,97101.28
2022-11-24T05:20:49.594Z,97104.81
2022-11-24T05:23:20.135Z,97111.53
2022-11-24T05:25:50.611Z,97115.91
2022-11-24T05:28:21.761Z,97120.84
2022-11-24T05:30:54.894Z,97119.31
2022-11-24T05:33:25.275Z,97127.34
2022-11-24T05:35:55.688Z,97130.84
2022-11-24T05:38:26.660Z,97126.88
2022-11-24T05:40:57.193Z,97127.34
2022-11-24T05:43:28.364Z,97130.56
2022-11-24T05:46:02.456Z,97132.06
2022-11-24T05:48:33.301Z,97131.19
2022-11-24T05:51:09.025Z,97132.53
2022-11-24T05:53:39.738Z,97137.84
2022-11-24T05:56:11.410Z,97145.00
2022-11-24T05:58:41.767Z,97138.91
2022-11-24T06:01:14.818Z,97148.53
2022-11-24T06:03:45.212Z,97150.06
2022-11-24T06:06:15.772Z,97150.28
2022-11-24T06:08:46.197Z,97149.81
2022-11-24T06:11:22.315Z,97149.38
2022-11-24T06:13:52.772Z,97156.53
2022-11-24T06:16:26.114Z,97160.66
2022-11-24T06:18:56.536Z,97151.81
2022-11-24T06:21:27.207Z,97163.53
2022-11-24T06:23:57.678Z,97159.88
2022-11-24T06:26:28.233Z,97166.31
2022-11-24T06:28:58.879Z,97159.81
2022-11-24T06:31:32.047Z,97163.03
2022-11-24T06:34:02.671Z,97167.78
2022-11-24T06:36:33.125Z,97165.97
2022-11-24T06:39:04.825Z,97166.13
2022-11-24T06:41:35.451Z,97166.13
2022-11-24T06:44:07.135Z,97165.97
2022-11-24T06:46:40.402Z,97176.34
2022-11-24T06:49:10.776Z,97180.19
2022-11-24T06:51:42.031Z,97173.94
2022-11-24T06:54:17.125Z,97180.03
2022-11-24T06:56:47.534Z,97180.34
2022-11-24T06:59:22.017Z,97186.94
2022-11-24T07:01:55.032Z,97186.31
2022-11-24T07:04:25.382Z,97189.53
2022-11-24T07:06:55.762Z,97182.50
2022-11-24T07:09:26.184Z,97185.84
2022-11-24T07:11:59.163Z,97184.19
2022-11-24T07:14:29.550Z,97190.59
2022-11-24T07:17:02.778Z,97195.16
2022-11-24T07:19:33.172Z,97198.22
2022-11-24T07:22:03.713Z,97203.88
2022-11-24T07:24:34.384Z,97204.47
2022-11-24T07:27:05.096Z,97202.50
2022-11-24T07:29:35.549Z,97207.41
2022-11-24T07:32:09.110Z,97205.56
2022-11-24T07:34:40.169Z,97208.47
2022-11-24T07:37:10.387Z,97219.13
2022-11-24T07:39:40.797Z,97215.94
2022-11-24T07:42:11.612Z,97208.28
2022-11-24T07:44:42.058Z,97210.91
2022-11-24T07:47:15.188Z,97225.09
2022-11-24T07:49:45.563Z,97218.69
2022-11-24T07:52:16.019Z,97224.50
2022-11-24T07:54:46.479Z,97223.25
2022-11-24T07:57:16.936Z,97229.06
2022-11-24T07:59:47.348Z,97231.66
2022-11-24T08:02:20.442Z,97229.06
2022-11-24T08:04:51.020Z,97232.41
2022-11-24T08:07:21.596Z,97232.25
2022-11-24T08:09:52.807Z,97239.13
2022-11-24T08:12:24.083Z,97248.63
2022-11-24T08:14:54.842Z,97246.75
2022-11-24T08:17:28.139Z,97245.06
2022-11-24T08:19:58.490Z,97240.94
2022-11-24T08:22:29.086Z,97248.84
2022-11-24T08:24:59.533Z,97235.72
2022-11-24T08:27:29.987Z,97245.31
2022-11-24T08:30:00.540Z,97246.22
2022-11-24T08:32:33.555Z,97246.66
2022-11-24T08:35:18.665Z,97247.25
2022-11-24T08:37:49.069Z,97242.94
2022-11-24T08:40:20.671Z,97246.88
2022-11-24T08:42:51.147Z,97246.13
2022-11-24T08:45:24.678Z,97250.53
2022-11-24T08:48:00.075Z,97249.88
2022-11-24T08:50:30.522Z,97251.81
2022-11-24T08:53:01.011Z,97262.09
2022-11-24T08:55:31.395Z,97257.34
2022-11-24T08:58:01.815Z,97263.63
2022-11-24T09:00:32.595Z,97259.94
2022-11-24T09:03:05.637Z,97263.09
2022-11-24T09:05:52.936Z,97266.81
2022-11-24T09:08:23.650Z,97264.63
2022-11-24T09:10:54.861Z,97269.88
2022-11-24T09:13:25.267Z,97267.56
2022-11-24T09:15:55.716Z,97270.88
2022-11-24T09:18:30.508Z,97276.78
2022-11-24T09:21:10.864Z,97277.50
2022-11-24T09:23:41.931Z,97276.00
2022-11-24T09:26:13.695Z,97275.31
2022-11-24T09:28:44.739Z,97273.38
2022-11-24T09:31:16.680Z,97276.53
2022-11-24T09:33:50.037Z,97271.44
2022-11-24T09:36:20.535Z,97273.78
2022-11-24T09:38:51.121Z,97275.59
2022-11-24T09:41:43.669Z,97273.53
2022-11-24T09:44:48.953Z,97270.50
2022-11-24T09:47:35.134Z,97272.41
2022-11-24T09:50:14.346Z,97267.72
2022-11-24T09:52:53.257Z,97283.69
2022-11-24T09:55:40.057Z,97277.50
2022-11-24T09:58:24.740Z,97278.75
2022-11-24T10:00:57.885Z,97289.69
2022-11-24T10:03:33.412Z,97287.03
2022-11-24T10:06:18.134Z,97290.75
2022-11-24T10:09:16.804Z,97284.47
2022-11-24T10:11:59.497Z,97294.81
2022-11-24T10:14:54.401Z,97294.97
2022-11-24T10:17:47.236Z,97291.75
2022-11-24T10:20:27.533Z,97292.63
2022-11-24T10:23:21.991Z,97297.63
2022-11-24T10:26:00.412Z,97292.94
2022-11-24T10:28:39.161Z,97302.56
2022-11-24T10:31:27.381Z,97298.16
2022-11-24T10:33:59.707Z,97296.63
2022-11-24T10:36:39.025Z,97300.47
2022-11-24T10:39:22.528Z,97299.69
2022-11-24T10:41:57.630Z,97295.88
2022-11-24T10:44:28.308Z,97299.47
2022-11-24T10:46:58.781Z,97291.97
2022-11-24T10:49:34.391Z,97293.72
2022-11-24T10:52:10.259Z,97296.50
2022-11-24T10:54:59.038Z,97303.25
2022-11-24T10:57:35.579Z,97298.03
2022-11-24T11:00:33.113Z,97293.78
2022-11-24T11:03:21.969Z,97297.22
2022-11-24T11:05:56.165Z,97293.78
2022-11-24T11:08:29.597Z,97293.38
2022-11-24T11:11:35.455Z,97297.88
2022-11-24T11:14:09.081Z,97295.38
2022-11-24T11:16:42.982Z,97293.22
2022-11-24T11:19:54.251Z,97294.09
2022-11-24T11:22:30.735Z,97296.75
2022-11-24T11:25:21.656Z,97309.72
2022-11-24T11:27:55.253Z,97299.72
2022-11-24T11:36:19.677Z,97307.94
2022-11-24T11:38:50.988Z,97305.84
2022-11-24T11:41:27.309Z,97311.56
2022-11-24T11:44:16.759Z,97306.69
2022-11-24T11:46:48.337Z,97310.69
2022-11-24T11:49:19.055Z,97314.59
2022-11-24T11:52:07.212Z,97316.63
2022-11-24T11:55:14.193Z,97319.00
2022-11-24T11:57:55.645Z,97322.13
2022-11-24T12:00:28.674Z,97317.66
2022-11-24T12:03:36.615Z,97326.44
2022-11-24T12:06:26.094Z,97323.59
2022-11-24T12:09:23.965Z,97329.69
2022-11-24T12:12:16.215Z,97324.72
2022-11-24T12:15:10.331Z,97321.56
2022-11-24T12:17:49.475Z,97321.66
2022-11-24T12:20:40.397Z,97325.81
2022-11-24T12:23:24.632Z,97333.59
2022-11-24T12:26:03.886Z,97321.22
2022-11-24T12:28:48.549Z,97329.81
2022-11-24T12:31:32.006Z,97326.53
2022-11-24T12:34:41.646Z,97334.44
2022-11-24T12:37:29.311Z,97327.19
2022-11-24T12:40:08.484Z,97333.69
2022-11-24T12:42:49.485Z,97324.44
2022-11-24T12:45:22.930Z,97331.84
2022-11-24T12:48:22.713Z,97325.63
2022-11-24T12:50:57.956Z,97333.06
2022-11-24T12:53:32.534Z,97328.66
2022-11-24T12:56:10.316Z,97329.56
2022-11-24T12:58:50.493Z,97331.22
2022-11-24T13:01:33.890Z,97335.19
2022-11-24T13:04:14.056Z,97332.47
2022-11-24T13:06:54.800Z,97339.09
2022-11-24T13:09:25.288Z,97342.00
2022-11-24T13:12:02.039Z,97352.06
2022-11-24T13:14:37.477Z,97345.31
2022-11-24T13:17:39.326Z,97347.81
2022-11-24T13:20:28.952Z,97349.31
2022-11-24T13:23:05.179Z,97361.53
2022-11-24T13:25:37.810Z,97355.78
2022-11-24T13:29:01.445Z,97359.88
2022-11-24T13:31:35.560Z,97363.81
2022-11-24T13:35:04.491Z,97362.13
2022-11-24T13:37:52.995Z,97366.78
2022-11-24T13:41:12.958Z,97367.00
2022-11-24T13:43:37.896Z,97369.88
2022-11-24T13:46:12.392Z,97371.84
2022-11-24T13:49:03.575Z,97378.53
2022-11-24T13:51:34.074Z,97372.25
2022-11-24T13:54:05.359Z,97379.50
2022-11-24T13:56:38.523Z,97383.34
2022-11-24T13:59:22.842Z,97387.00
2022-11-24T14:02:00.767Z,97389.31
2022-11-24T14:04:33.432Z,97388.22
2022-11-24T14:07:09.724Z,97389.28
2022-11-24T14:09:47.177Z,97402.41
2022-11-24T14:12:23.312Z,97402.06
2022-11-24T14:14:55.828Z,97397.09
2022-11-24T14:17:28.962Z,97408.06
2022-11-24T14:20:01.215Z,97410.19
2022-11-24T14:22:40.032Z,97421.56
2022-11-24T14:25:26.144Z,97419.72
2022-11-24T14:27:59.548Z,97423.44
2022-11-24T14:30:30.304Z,97424.88
2022-11-24T14:33:02.723Z,97422.16
2022-11-24T14:35:36.923Z,97423.13
2022-11-24T14:38:09.106Z,97426.53
2022-11-24T14:40:45.149Z,97432.69
2022-11-24T14:43:30.047Z,97437.75
2022-11-24T14:46:04.361Z,97435.09
2022-11-24T14:48:39.081Z,97437.41
2022-11-24T14:51:17.403Z,97437.72
2022-11-24T14:53:51.212Z,97445.88
2022-11-24T14:56:29.059Z,97447.41
2022-11-24T14:59:02.117Z,97456.34
2022-11-24T15:01:36.310Z,97457.56
2022-11-24T15:04:54.323Z,97455.84
2022-11-24T15:07:22.222Z,97462.94
2022-11-24T15:09:58.057Z,97460.22
2022-11-24T15:12:34.932Z,97472.84
2022-11-24T15:15:20.400Z,97470.91
2022-11-24T15:17:53.651Z,97472.88
2022-11-24T15:20:30.452Z,97468.31
2022-11-24T15:23:25.735Z,97470.44
2022-11-24T15:25:56.959Z,97472.88
2022-11-24T15:28:28.466Z,97474.25
2022-11-24T15:31:05.346Z,97483.59
2022-11-24T15:33:36.298Z,97487.81
2022-11-24T15:36:07.433Z,97495.78
2022-11-24T15:38:37.579Z,97491.47
2022-11-24T15:41:21.246Z,97491.59
2022-11-24T15:43:58.852Z,97490.22
2022-11-24T15:46:38.339Z,97492.38
2022-11-24T15:49:09.672Z,97505.25
2022-11-24T15:51:44.100Z,97498.84
2022-11-24T15:54:18.396Z,97513.56
2022-11-24T15:56:49.170Z,97510.19
2022-11-24T15:59:21.294Z,97507.44
2022-11-24T16:01:54.535Z,97501.94
2022-11-24T16:04:24.946Z,97514.84
2022-11-24T16:06:55.382Z,97511.31
2022-11-24T16:09:25.854Z,97519.88
2022-11-24T16:11:56.243Z,97515.56
2022-11-24T16:14:26.807Z,97520.06
2022-11-24T16:16:59.947Z,97519.19
2022-11-24T16:19:31.086Z,97522.75
2022-11-24T16:22:01.496Z,97528.63
2022-11-24T16:24:32.531Z,97522.31
2022-11-24T16:27:03.447Z,97526.16
2022-11-24T16:29:38.176Z,97537.66
2022-11-24T16:32:11.740Z,97531.63
2022-11-24T16:34:42.149Z,97530.47
2022-11-24T16:37:13.395Z,97536.44
2022-11-24T16:39:49.792Z,97536.44
2022-11-24T16:42:20.823Z,97541.38
2022-11-24T16:44:52.137Z,97547.50
2022-11-24T16:47:25.167Z,97542.28
2022-11-24T16:49:55.609Z,97542.28
2022-11-24T16:52:26.156Z,97550.25
2022-11-24T16:54:56.675Z,97547.81
2022-11-24T16:57:27.131Z,97551.91
2022-11-24T16:59:57.592Z,97555.75
2022-11-24T17:02:30.910Z,97559.13
2022-11-24T17:05:01.398Z,97556.06
2022-11-24T17:07:32.115Z,97562.50
2022-11-24T17:10:02.912Z,97564.50
2022-11-24T17:12:33.425Z,97558.84
2022-11-24T17:15:31.214Z,97556.84
2022-11-24T17:18:22.809Z,97557.31
2022-11-24T17:20:47.500Z,97558.88
2022-11-24T17:23:19.719Z,97567.16
2022-11-24T17:25:51.089Z,97565.63
2022-11-24T17:28:21.826Z,97563.16
2022-11-24T17:30:52.272Z,97568.22
2022-11-24T17:33:25.570Z,97582.00
2022-11-24T17:35:55.956Z,97575.13
2022-11-24T17:38:26.434Z,97579.13
2022-11-24T17:40:56.905Z,97582.50
2022-11-24T17:43:27.642Z,97576.38
2022-11-24T17:45:59.509Z,97580.38
2022-11-24T17:48:33.846Z,97580.50
2022-11-24T17:51:07.972Z,97586.81
2022-11-24T17:53:40.608Z,97585.44
2022-11-24T17:56:15.603Z,97596.00
2022-11-24T17:58:45.980Z,97592.78
2022-11-24T18:01:17.036Z,97601.81
2022-11-24T18:03:53.379Z,97600.13
2022-11-24T18:06:25.778Z,97596.78
2022-11-24T18:08:57.150Z,97602.91
2022-11-24T18:11:31.787Z,97600.00
2022-11-24T18:14:05.196Z,97604.75
2022-11-24T18:16:37.543Z,97606.75
2022-11-24T18:19:11.309Z,97613.16
2022-11-24T18:21:43.893Z,97612.56
2022-11-24T18:24:18.584Z,97610.88
2022-11-24T18:26:51.519Z,97607.38
2022-11-24T18:29:22.134Z,97614.72
2022-11-24T18:31:52.650Z,97618.72
2022-11-24T18:34:26.145Z,97614.72
2022-11-24T18:36:56.616Z,97610.72
2022-11-24T18:39:28.532Z,97608.75
2022-11-24T18:41:59.153Z,97618.06
2022-11-24T18:44:30.863Z,97623.44
2022-11-24T18:47:01.322Z,97622.38
2022-11-24T18:49:34.797Z,97614.59
2022-11-24T18:52:05.346Z,97614.88
2022-11-24T18:54:36.077Z,97627.91
2022-11-24T18:57:07.072Z,97623.91
2022-11-24T18:59:37.552Z,97625.75
2022-11-24T19:02:08.167Z,97626.97
2022-11-24T19:04:41.361Z,97628.03
2022-11-24T19:07:12.285Z,97626.81
2022-11-24T19:09:42.796Z,97631.72
2022-11-24T19:12:13.913Z,97629.88
2022-11-24T19:14:44.189Z,97629.25
2022-11-24T19:17:14.708Z,97638.00
2022-11-24T19:19:47.812Z,97636.03
2022-11-24T19:22:18.431Z,97640.13
2022-11-24T19:24:50.973Z,97642.13
2022-11-24T19:27:22.066Z,97644.75
2022-11-24T19:29:55.127Z,97649.66
2022-11-24T19:32:25.638Z,97648.44
2022-11-24T19:34:58.979Z,97651.63
2022-11-24T19:37:31.192Z,97643.81
2022-11-24T19:40:01.540Z,97648.72
2022-11-24T19:42:32.055Z,97652.25
2022-11-24T19:45:02.516Z,97652.41
2022-11-24T19:47:33.174Z,97659.47
2022-11-24T19:50:10.328Z,97661.91
2022-11-24T19:52:41.177Z,97667.28
2022-11-24T19:55:12.905Z,97661.44
2022-11-24T19:57:43.396Z,97667.28
2022-11-24T20:00:16.670Z,97669.88
2022-11-24T20:02:47.115Z,97670.50
2022-11-24T20:05:20.287Z,97674.78
2022-11-24T20:07:51.171Z,97675.38
2022-11-24T20:10:21.960Z,97678.00
2022-11-24T20:12:52.354Z,97678.91
2022-11-24T20:15:22.866Z,97680.31
2022-11-24T20:17:53.603Z,97683.22
2022-11-24T20:20:26.736Z,97685.38
2022-11-24T20:22:57.138Z,97686.91
2022-11-24T20:25:27.933Z,97690.13
2022-11-24T20:27:58.559Z,97692.75
2022-11-24T20:30:29.327Z,97702.41
2022-11-24T20:33:00.283Z,97703.03
2022-11-24T20:35:33.389Z,97698.09
2022-11-24T20:38:03.799Z,97706.84
2022-11-24T20:40:34.328Z,97708.38
2022-11-24T20:43:04.794Z,97710.97
2022-11-24T20:45:35.306Z,97715.13
2022-11-24T20:48:05.885Z,97705.75
2022-11-24T20:50:39.910Z,97710.50
2022-11-24T20:53:10.306Z,97713.13
2022-11-24T20:55:40.936Z,97718.66
2022-11-24T20:58:11.507Z,97713.72
2022-11-24T21:00:42.036Z,97714.63
2022-11-24T21:03:12.507Z,97714.19
2022-11-24T21:05:45.622Z,97718.63
2022-11-24T21:08:17.847Z,97714.03
2022-11-24T21:10:56.427Z,97722.44
2022-11-24T21:13:27.392Z,97725.19
2022-11-24T21:15:58.801Z,97721.66
2022-11-24T21:18:29.367Z,97727.19
2022-11-24T21:21:02.714Z,97729.16
2022-11-24T21:23:33.188Z,97738.50
2022-11-24T21:26:05.646Z,97733.25
2022-11-24T21:28:37.167Z,97730.81
2022-11-24T21:31:09.320Z,97736.31
2022-11-24T21:33:45.044Z,97736.66
2022-11-24T21:36:20.080Z,97739.75
2022-11-24T21:38:54.464Z,97737.91
2022-11-24T21:41:27.374Z,97740.34
2022-11-24T21:43:58.529Z,97736.38
2022-11-24T21:46:28.826Z,97736.50
2022-11-24T21:48:59.390Z,97735.44
2022-11-24T21:51:32.884Z,97734.53
2022-11-24T21:54:03.267Z,97740.63
2022-11-24T21:56:33.694Z,97738.03
2022-11-24T21:59:04.195Z,97740.81
2022-11-24T22:01:34.765Z,97739.75
2022-11-24T22:04:05.229Z,97741.72
2022-11-24T22:06:40.615Z,97742.47
2022-11-24T22:09:16.395Z,97741.22
2022-11-24T22:11:49.461Z,97751.50
2022-11-24T22:14:19.950Z,97749.19
2022-11-24T22:16:50.545Z,97741.06
2022-11-24T22:19:21.584Z,97746.25
2022-11-24T22:21:55.047Z,97737.78
2022-11-24T22:24:27.465Z,97746.06
2022-11-24T22:26:58.052Z,97756.63
2022-11-24T22:29:28.589Z,97745.59
2022-11-24T22:31:59.115Z,97755.41
2022-11-24T22:34:29.644Z,97756.13
2022-11-24T22:37:02.809Z,97761.31
2022-11-24T22:39:33.210Z,97752.28
2022-11-24T22:42:03.621Z,97758.44
2022-11-24T22:44:34.372Z,97759.78
2022-11-24T22:47:05.043Z,97759.78
2022-11-24T22:49:35.552Z,97757.03
2022-11-24T22:52:08.947Z,97765.09
2022-11-24T22:54:39.333Z,97770.06
2022-11-24T22:57:09.739Z,97769.84
2022-11-24T22:59:40.175Z,97773.53
2022-11-24T23:02:10.620Z,97775.84
2022-11-24T23:04:41.074Z,97775.38
2022-11-24T23:07:14.126Z,97774.75
2022-11-24T23:09:44.509Z,97784.81
2022-11-24T23:12:14.956Z,97774.88
2022-11-24T23:14:45.432Z,97780.25
2022-11-24T23:17:15.869Z,97783.94
2022-11-24T23:19:46.501Z,97784.22
2022-11-24T23:22:19.528Z,97780.00
2022-11-24T23:24:49.934Z,97784.28
2022-11-24T23:27:20.437Z,97787.03
2022-11-24T23:29:50.954Z,97775.88
2022-11-24T23:32:21.438Z,97783.69
2022-11-24T23:34:52.066Z,97782.28
2022-11-24T23:37:39.335Z,97786.91
2022-11-24T23:40:16.344Z,97789.47
2022-11-24T23:42:49.698Z,97790.25
2022-11-24T23:45:20.293Z,97784.28
2022-11-24T23:47:50.721Z,97783.34
2022-11-24T23:50:21.432Z,97787.94
2022-11-24T23:52:54.472Z,97787.94
2022-11-24T23:55:24.808Z,97786.28
2022-11-24T23:57:55.158Z,97775.06
